createdAt,value
2023-03-18T00:02:24.275Z,11.10
2023-03-18T00:05:15.250Z,11.10
2023-03-18T00:08:06.126Z,11.00
2023-03-18T00:10:55.464Z,11.00
2023-03-18T00:13:45.322Z,11.00
2023-03-18T00:16:35.080Z,11.00
2023-03-18T00:19:25.250Z,11.00
2023-03-18T00:22:16.035Z,11.00
2023-03-18T00:25:09.147Z,11.00
2023-03-18T00:27:58.403Z,11.00
2023-03-18T00:30:47.724Z,11.00
2023-03-18T00:33:38.369Z,11.00
2023-03-18T00:36:28.754Z,11.00
2023-03-18T00:39:26.133Z,11.00
2023-03-18T00:42:15.792Z,11.00
2023-03-18T00:45:07.518Z,11.00
2023-03-18T00:47:56.998Z,11.00
2023-03-18T00:50:46.865Z,11.00
2023-03-18T00:53:37.023Z,11.00
2023-03-18T00:56:30.874Z,11.00
2023-03-18T00:59:20.812Z,11.00
2023-03-18T01:02:10.291Z,11.00
2023-03-18T01:04:59.610Z,11.00
2023-03-18T01:07:49.494Z,11.00
2023-03-18T01:10:38.913Z,11.00
2023-03-18T01:13:29.854Z,11.00
2023-03-18T01:16:20.949Z,11.00
2023-03-18T01:19:10.715Z,11.00
2023-03-18T01:22:00.250Z,11.00
2023-03-18T01:24:49.892Z,10.90
2023-03-18T01:27:42.034Z,11.00
2023-03-18T01:30:34.852Z,10.90
2023-03-18T01:33:27.698Z,10.90
2023-03-18T01:36:17.618Z,10.90
2023-03-18T01:39:17.520Z,11.00
2023-03-18T01:42:07.139Z,10.90
2023-03-18T01:45:18.108Z,10.90
2023-03-18T01:48:16.277Z,11.00
2023-03-18T01:51:10.127Z,10.90
2023-03-18T01:54:03.256Z,10.90
2023-03-18T01:56:53.870Z,10.90
2023-03-18T01:59:44.640Z,10.90
2023-03-18T02:02:34.969Z,10.90
2023-03-18T02:05:28.662Z,10.90
2023-03-18T02:08:19.076Z,10.90
2023-03-18T02:11:08.977Z,10.80
2023-03-18T02:13:58.419Z,10.80
2023-03-18T02:16:57.207Z,10.80
2023-03-18T02:20:09.312Z,10.80
2023-03-18T02:23:10.744Z,10.80
2023-03-18T02:26:09.431Z,10.80
2023-03-18T02:29:04.790Z,10.80
2023-03-18T02:32:05.300Z,10.70
2023-03-18T02:34:55.153Z,10.70
2023-03-18T02:37:45.067Z,10.60
2023-03-18T02:40:40.720Z,10.60
2023-03-18T02:43:41.629Z,10.60
2023-03-18T02:46:42.126Z,10.60
2023-03-18T02:49:32.900Z,10.60
2023-03-18T02:52:23.159Z,10.50
2023-03-18T02:55:12.840Z,10.50
2023-03-18T02:58:02.169Z,10.50
2023-03-18T03:00:51.884Z,10.40
2023-03-18T03:03:44.003Z,10.40
2023-03-18T03:06:35.982Z,10.40
2023-03-18T03:09:26.126Z,10.40
2023-03-18T03:12:15.833Z,10.40
2023-03-18T03:15:13.260Z,10.40
2023-03-18T03:18:08.747Z,10.30
2023-03-18T03:21:00.724Z,10.30
2023-03-18T03:23:51.540Z,10.30
2023-03-18T03:26:40.899Z,10.30
2023-03-18T03:29:30.416Z,10.20
2023-03-18T03:32:19.703Z,10.20
2023-03-18T03:35:14.036Z,10.20
2023-03-18T03:38:04.699Z,10.20
2023-03-18T03:40:54.758Z,10.10
2023-03-18T03:43:44.783Z,10.10
2023-03-18T03:46:34.166Z,10.10
2023-03-18T03:49:23.572Z,10.00
2023-03-18T03:52:13.121Z,10.00
2023-03-18T03:55:07.195Z,10.00
2023-03-18T03:57:58.106Z,10.00
2023-03-18T04:00:49.017Z,9.90
2023-03-18T04:03:38.322Z,9.90
2023-03-18T04:06:29.993Z,9.90
2023-03-18T04:09:23.908Z,9.90
2023-03-18T04:12:18.256Z,9.80
2023-03-18T04:15:12.700Z,9.80
2023-03-18T04:18:06.781Z,9.80
2023-03-18T04:20:56.548Z,9.70
2023-03-18T04:24:12.659Z,9.70
2023-03-18T04:27:02.242Z,9.70
2023-03-18T04:29:53.145Z,9.60
2023-03-18T04:32:43.503Z,9.60
2023-03-18T04:35:34.105Z,9.60
2023-03-18T04:38:23.571Z,9.60
2023-03-18T04:41:14.390Z,9.60
2023-03-18T04:44:03.826Z,9.50
2023-03-18T04:47:03.119Z,9.50
2023-03-18T04:49:52.546Z,9.50
2023-03-18T04:52:43.702Z,9.50
2023-03-18T04:55:35.477Z,9.50
2023-03-18T04:58:27.856Z,9.50
2023-03-18T05:01:30.773Z,9.40
2023-03-18T05:04:22.134Z,9.40
2023-03-18T05:07:16.900Z,9.40
2023-03-18T05:10:16.214Z,9.40
2023-03-18T05:13:06.305Z,9.40
2023-03-18T05:15:57.456Z,9.40
2023-03-18T05:18:46.978Z,9.40
2023-03-18T05:21:37.817Z,9.40
2023-03-18T05:24:28.666Z,9.50
2023-03-18T05:27:20.179Z,9.40
2023-03-18T05:30:19.292Z,9.40
2023-03-18T05:33:12.889Z,9.50
2023-03-18T05:36:11.650Z,9.50
2023-03-18T05:39:12.797Z,9.50
2023-03-18T05:42:04.620Z,9.50
2023-03-18T05:44:54.360Z,9.60
2023-03-18T05:47:45.627Z,9.60
2023-03-18T05:50:38.974Z,9.60
2023-03-18T05:53:32.073Z,9.60
2023-03-18T05:56:32.817Z,9.70
2023-03-18T05:59:25.236Z,9.80
2023-03-18T06:02:19.301Z,9.80
2023-03-18T06:05:10.646Z,9.90
2023-03-18T06:08:01.649Z,10.00
2023-03-18T06:10:51.584Z,10.10
2023-03-18T06:13:43.403Z,10.30
2023-03-18T06:16:34.036Z,10.40
2023-03-18T06:19:25.248Z,10.50
2023-03-18T06:22:15.278Z,10.70
2023-03-18T06:25:08.049Z,10.80
2023-03-18T06:28:01.572Z,11.00
2023-03-18T06:30:57.469Z,11.20
2023-03-18T06:33:47.363Z,11.40
2023-03-18T06:36:38.608Z,11.60
2023-03-18T06:39:33.210Z,11.70
2023-03-18T06:42:25.792Z,11.90
2023-03-18T06:45:22.987Z,12.10
2023-03-18T06:48:19.860Z,12.30
2023-03-18T06:51:11.291Z,12.60
2023-03-18T06:54:03.175Z,12.90
2023-03-18T06:56:54.420Z,13.20
2023-03-18T06:59:45.571Z,13.50
2023-03-18T07:02:39.401Z,13.80
2023-03-18T07:05:33.118Z,14.20
2023-03-18T07:08:22.856Z,14.50
2023-03-18T07:11:12.348Z,14.90
2023-03-18T07:14:04.334Z,15.30
2023-03-18T07:16:56.850Z,15.80
2023-03-18T07:19:46.992Z,16.10
2023-03-18T07:22:37.912Z,16.50
2023-03-18T07:25:29.775Z,16.90
2023-03-18T07:28:19.434Z,17.10
2023-03-18T07:31:08.971Z,17.40
2023-03-18T07:34:00.575Z,17.50
2023-03-18T07:36:50.579Z,17.70
2023-03-18T07:39:43.459Z,17.80
2023-03-18T07:42:32.891Z,17.90
2023-03-18T07:45:22.188Z,18.00
2023-03-18T07:48:11.828Z,18.00
2023-03-18T07:51:01.291Z,18.10
2023-03-18T07:53:51.792Z,18.10
2023-03-18T07:56:42.892Z,18.20
2023-03-18T07:59:32.364Z,18.40
2023-03-18T08:02:21.815Z,18.50
2023-03-18T08:05:13.590Z,18.70
2023-03-18T08:08:04.497Z,18.90
2023-03-18T08:10:59.855Z,19.10
2023-03-18T08:13:50.568Z,19.40
2023-03-18T08:16:39.973Z,19.70
2023-03-18T08:19:29.516Z,20.00
2023-03-18T08:22:19.352Z,20.40
2023-03-18T08:25:11.606Z,20.90
2023-03-18T08:28:01.067Z,21.30
2023-03-18T08:30:56.838Z,21.80
2023-03-18T08:33:46.500Z,22.30
2023-03-18T08:36:36.058Z,22.90
2023-03-18T08:39:25.440Z,23.50
2023-03-18T08:42:14.963Z,24.10
2023-03-18T08:45:04.809Z,24.70
2023-03-18T08:47:56.083Z,25.30
2023-03-18T08:50:45.400Z,25.80
2023-03-18T08:53:34.811Z,26.30
2023-03-18T08:56:24.146Z,26.80
2023-03-18T08:59:13.711Z,27.20
2023-03-18T09:02:03.494Z,27.70
2023-03-18T09:04:55.851Z,28.10
2023-03-18T09:07:46.461Z,28.50
2023-03-18T09:10:35.969Z,29.00
2023-03-18T09:13:25.843Z,29.40
2023-03-18T09:16:15.526Z,29.80
2023-03-18T09:19:04.865Z,30.10
2023-03-18T09:21:56.133Z,30.40
2023-03-18T09:24:45.533Z,30.60
2023-03-18T09:27:35.034Z,30.80
2023-03-18T09:30:25.642Z,30.90
2023-03-18T09:33:16.127Z,31.00
2023-03-18T09:36:06.385Z,30.90
2023-03-18T09:38:57.295Z,30.80
2023-03-18T09:42:07.250Z,30.70
2023-03-18T09:45:01.292Z,30.60
2023-03-18T09:48:11.392Z,30.60
2023-03-18T09:51:09.010Z,30.50
2023-03-18T09:54:04.248Z,30.50
2023-03-18T09:56:54.993Z,30.50
2023-03-18T09:59:49.074Z,30.40
2023-03-18T10:02:42.620Z,30.40
2023-03-18T10:05:36.041Z,30.40
2023-03-18T10:08:39.878Z,30.30
2023-03-18T10:11:33.951Z,30.30
2023-03-18T10:14:38.432Z,30.10
2023-03-18T10:17:32.767Z,29.90
2023-03-18T10:20:33.400Z,29.70
2023-03-18T10:23:36.411Z,29.60
2023-03-18T10:26:33.391Z,29.50
2023-03-18T10:29:42.554Z,29.30
2023-03-18T10:32:49.837Z,29.20
2023-03-18T10:35:46.930Z,29.00
2023-03-18T10:38:39.709Z,28.90
2023-03-18T10:41:36.235Z,28.70
2023-03-18T10:44:29.505Z,28.70
2023-03-18T10:47:24.008Z,28.60
2023-03-18T10:50:20.037Z,28.50
2023-03-18T10:53:21.515Z,28.40
2023-03-18T10:56:13.040Z,28.40
2023-03-18T10:59:11.686Z,28.30
2023-03-18T11:02:06.311Z,28.20
2023-03-18T11:05:01.516Z,28.20
2023-03-18T11:07:59.981Z,28.20
2023-03-18T11:10:49.513Z,28.20
2023-03-18T11:13:38.819Z,28.20
2023-03-18T11:16:38.281Z,28.20
2023-03-18T11:19:33.528Z,28.30
2023-03-18T11:22:25.362Z,28.30
2023-03-18T11:25:18.253Z,28.30
2023-03-18T11:28:20.908Z,28.40
2023-03-18T11:31:19.034Z,28.40
2023-03-18T11:34:11.595Z,28.40
2023-03-18T11:37:04.716Z,28.40
2023-03-18T11:39:58.998Z,28.40
2023-03-18T11:42:50.851Z,28.30
2023-03-18T11:45:48.807Z,28.30
2023-03-18T11:48:41.331Z,28.20
2023-03-18T11:51:45.830Z,28.10
2023-03-18T11:55:01.607Z,28.00
2023-03-18T11:58:41.217Z,27.80
2023-03-18T12:01:38.854Z,27.70
2023-03-18T12:05:09.490Z,27.50
2023-03-18T12:08:13.460Z,27.30
2023-03-18T12:11:14.743Z,27.20
2023-03-18T12:14:11.071Z,27.10
2023-03-18T12:17:17.670Z,27.00
2023-03-18T12:20:40.273Z,26.90
2023-03-18T12:24:01.551Z,26.80
2023-03-18T12:26:59.743Z,26.60
2023-03-18T12:30:27.719Z,26.50
2023-03-18T12:33:34.171Z,26.40
2023-03-18T12:36:39.855Z,26.30
2023-03-18T12:40:26.922Z,26.20
2023-03-18T12:43:51.609Z,26.10
2023-03-18T12:46:47.945Z,25.90
2023-03-18T12:49:40.571Z,25.70
2023-03-18T12:52:38.076Z,25.60
2023-03-18T12:55:33.175Z,25.40
2023-03-18T12:58:27.152Z,25.30
2023-03-18T13:01:20.576Z,25.20
2023-03-18T13:04:16.138Z,25.10
2023-03-18T13:07:16.007Z,25.00
2023-03-18T13:10:20.036Z,24.90
2023-03-18T13:13:13.725Z,24.80
2023-03-18T13:16:05.989Z,24.70
2023-03-18T13:18:59.129Z,24.60
2023-03-18T13:21:53.720Z,24.50
2023-03-18T13:25:05.985Z,24.40
2023-03-18T13:28:34.121Z,24.30
2023-03-18T13:31:38.220Z,24.20
2023-03-18T13:35:13.245Z,24.00
2023-03-18T13:38:30.319Z,23.90
2023-03-18T13:41:52.627Z,23.80
2023-03-18T13:44:46.224Z,23.70
2023-03-18T13:47:40.612Z,23.70
2023-03-18T13:50:37.396Z,23.60
2023-03-18T13:53:31.084Z,23.50
2023-03-18T13:56:34.392Z,23.50
2023-03-18T13:59:48.544Z,23.40
2023-03-18T14:02:48.012Z,23.30
2023-03-18T14:05:42.531Z,23.20
2023-03-18T14:08:46.259Z,23.00
2023-03-18T14:11:53.255Z,22.90
2023-03-18T14:15:02.788Z,22.70
2023-03-18T14:17:59.351Z,22.60
2023-03-18T14:20:54.825Z,22.40
2023-03-18T14:23:45.809Z,22.30
2023-03-18T14:26:36.168Z,22.10
2023-03-18T14:29:30.924Z,22.00
2023-03-18T14:32:40.233Z,21.80
2023-03-18T14:35:35.773Z,21.70
2023-03-18T14:38:29.370Z,21.60
2023-03-18T14:41:24.433Z,21.50
2023-03-18T14:44:23.971Z,21.40
2023-03-18T14:47:37.528Z,21.30
2023-03-18T14:50:42.120Z,21.20
2023-03-18T14:53:35.686Z,21.20
2023-03-18T14:56:30.548Z,21.10
2023-03-18T14:59:19.842Z,21.00
2023-03-18T15:02:24.581Z,21.00
2023-03-18T15:05:18.779Z,20.90
2023-03-18T15:08:15.194Z,20.90
2023-03-18T15:11:07.533Z,20.80
2023-03-18T15:14:00.118Z,20.70
2023-03-18T15:16:54.689Z,20.70
2023-03-18T15:19:44.358Z,20.60
2023-03-18T15:22:35.611Z,20.60
2023-03-18T15:25:26.558Z,20.50
2023-03-18T15:28:21.550Z,20.40
2023-03-18T15:31:13.949Z,20.40
2023-03-18T15:34:12.589Z,20.30
2023-03-18T15:37:04.790Z,20.20
2023-03-18T15:39:56.720Z,20.10
2023-03-18T15:42:47.833Z,20.00
2023-03-18T15:45:42.139Z,19.90
2023-03-18T15:48:37.684Z,19.80
2023-03-18T15:51:32.148Z,19.70
2023-03-18T15:54:28.513Z,19.60
2023-03-18T15:57:29.859Z,19.50
2023-03-18T16:00:22.238Z,19.40
2023-03-18T16:03:21.921Z,19.20
2023-03-18T16:06:11.952Z,19.10
2023-03-18T16:09:01.371Z,19.00
2023-03-18T16:11:54.788Z,19.00
2023-03-18T16:14:45.594Z,18.90
2023-03-18T16:17:37.081Z,18.80
2023-03-18T16:20:29.592Z,18.70
2023-03-18T16:23:19.709Z,18.60
2023-03-18T16:26:16.138Z,18.50
2023-03-18T16:29:17.599Z,18.50
2023-03-18T16:32:08.359Z,18.40
2023-03-18T16:34:59.339Z,18.30
2023-03-18T16:37:50.355Z,18.20
2023-03-18T16:40:39.730Z,18.10
2023-03-18T16:43:31.736Z,18.00
2023-03-18T16:46:21.136Z,18.00
2023-03-18T16:49:16.266Z,17.90
2023-03-18T16:52:07.574Z,17.80
2023-03-18T16:54:58.028Z,17.70
2023-03-18T16:57:52.500Z,17.50
2023-03-18T17:00:46.795Z,17.40
2023-03-18T17:03:37.096Z,17.30
2023-03-18T17:06:26.476Z,17.20
2023-03-18T17:09:17.409Z,17.10
2023-03-18T17:12:08.386Z,16.90
2023-03-18T17:14:59.387Z,16.80
2023-03-18T17:17:49.895Z,16.70
2023-03-18T17:20:39.186Z,16.60
2023-03-18T17:23:29.472Z,16.50
2023-03-18T17:26:20.206Z,16.30
2023-03-18T17:29:12.266Z,16.20
2023-03-18T17:32:01.697Z,16.10
2023-03-18T17:34:53.288Z,15.90
2023-03-18T17:37:42.944Z,15.90
2023-03-18T17:40:32.504Z,15.70
2023-03-18T17:43:29.536Z,15.60
2023-03-18T17:46:18.940Z,15.60
2023-03-18T17:49:12.454Z,15.50
2023-03-18T17:52:01.837Z,15.40
2023-03-18T17:54:51.855Z,15.40
2023-03-18T17:57:42.182Z,15.20
2023-03-18T18:00:33.889Z,15.20
2023-03-18T18:03:28.776Z,15.10
2023-03-18T18:06:22.061Z,15.00
2023-03-18T18:09:14.172Z,14.90
2023-03-18T18:12:05.284Z,14.80
2023-03-18T18:14:54.734Z,14.70
2023-03-18T18:17:46.247Z,14.70
2023-03-18T18:20:36.580Z,14.60
2023-03-18T18:23:31.715Z,14.50
2023-03-18T18:26:22.869Z,14.50
2023-03-18T18:29:16.743Z,14.40
2023-03-18T18:32:06.741Z,14.40
2023-03-18T18:34:57.362Z,14.30
2023-03-18T18:37:48.632Z,14.20
2023-03-18T18:40:37.979Z,14.20
2023-03-18T18:43:27.954Z,14.20
2023-03-18T18:46:18.142Z,14.10
2023-03-18T18:49:07.503Z,14.00
2023-03-18T18:52:00.254Z,14.00
2023-03-18T18:54:49.751Z,14.00
2023-03-18T18:57:42.883Z,13.90
2023-03-18T19:00:33.347Z,13.90
2023-03-18T19:03:25.770Z,13.90
2023-03-18T19:06:27.284Z,13.80
2023-03-18T19:09:20.464Z,13.80
2023-03-18T19:12:16.856Z,13.80
2023-03-18T19:15:07.359Z,13.70
2023-03-18T19:17:56.743Z,13.70
2023-03-18T19:20:46.335Z,13.60
2023-03-18T19:23:37.133Z,13.60
2023-03-18T19:26:27.825Z,13.60
2023-03-18T19:29:17.185Z,13.60
2023-03-18T19:32:08.213Z,13.50
2023-03-18T19:34:57.524Z,13.50
2023-03-18T19:37:48.521Z,13.50
2023-03-18T19:40:38.166Z,13.50
2023-03-18T19:43:30.266Z,13.40
2023-03-18T19:46:24.213Z,13.40
2023-03-18T19:49:19.985Z,13.40
2023-03-18T19:52:19.056Z,13.40
2023-03-18T19:55:10.809Z,13.40
2023-03-18T19:58:00.252Z,13.40
2023-03-18T20:00:51.601Z,13.30
2023-03-18T20:03:40.912Z,13.30
2023-03-18T20:06:30.149Z,13.30
2023-03-18T20:09:19.602Z,13.30
2023-03-18T20:12:21.386Z,13.30
2023-03-18T20:15:16.683Z,13.30
2023-03-18T20:18:17.286Z,13.30
2023-03-18T20:21:08.095Z,13.30
2023-03-18T20:24:04.317Z,13.30
2023-03-18T20:26:53.561Z,13.30
2023-03-18T20:29:48.983Z,13.30
2023-03-18T20:32:38.330Z,13.30
2023-03-18T20:35:32.545Z,13.30
2023-03-18T20:38:29.668Z,13.30
2023-03-18T20:41:21.822Z,13.30
2023-03-18T20:44:12.440Z,13.30
2023-03-18T20:47:01.717Z,13.30
2023-03-18T20:49:51.037Z,13.30
2023-03-18T20:52:44.083Z,13.30
2023-03-18T20:55:36.112Z,13.30
2023-03-18T20:58:27.643Z,13.30
2023-03-18T21:01:17.537Z,13.30
2023-03-18T21:04:07.535Z,13.30
2023-03-18T21:06:57.420Z,13.30
2023-03-18T21:09:48.127Z,13.30
2023-03-18T21:12:37.910Z,13.30
2023-03-18T21:15:29.209Z,13.30
2023-03-18T21:18:18.589Z,13.30
2023-03-18T21:21:08.257Z,13.30
2023-03-18T21:23:57.673Z,13.20
2023-03-18T21:27:01.609Z,13.20
2023-03-18T21:29:55.548Z,13.20
2023-03-18T21:32:46.300Z,13.20
2023-03-18T21:35:36.568Z,13.10
2023-03-18T21:38:27.105Z,13.10
2023-03-18T21:41:22.221Z,13.00
2023-03-18T21:44:13.617Z,13.00
2023-03-18T21:47:03.044Z,13.00
2023-03-18T21:49:52.824Z,13.00
2023-03-18T21:52:42.565Z,12.90
2023-03-18T21:55:32.331Z,12.90
2023-03-18T21:58:24.826Z,12.90
2023-03-18T22:01:20.281Z,12.90
2023-03-18T22:04:09.700Z,12.90
2023-03-18T22:06:59.080Z,12.90
2023-03-18T22:09:48.520Z,12.90
2023-03-18T22:12:38.105Z,12.90
2023-03-18T22:15:40.088Z,12.90
2023-03-18T22:18:30.815Z,13.00
2023-03-18T22:21:24.878Z,13.00
2023-03-18T22:24:15.805Z,13.00
2023-03-18T22:27:05.409Z,13.00
2023-03-18T22:29:57.473Z,13.00
2023-03-18T22:32:48.525Z,13.00
2023-03-18T22:35:39.232Z,13.00
2023-03-18T22:38:28.689Z,13.00
2023-03-18T22:41:22.373Z,13.00
2023-03-18T22:44:21.436Z,13.00
2023-03-18T22:47:15.875Z,13.00
2023-03-18T22:50:05.755Z,13.00
2023-03-18T22:53:01.559Z,13.00
2023-03-18T22:55:52.759Z,13.00
2023-03-18T22:58:42.076Z,13.00
2023-03-18T23:01:32.754Z,13.00
2023-03-18T23:04:22.049Z,13.00
2023-03-18T23:07:26.584Z,13.10
2023-03-18T23:10:18.131Z,13.10
2023-03-18T23:13:16.976Z,13.10
2023-03-18T23:16:08.561Z,13.10
2023-03-18T23:18:57.851Z,13.10
2023-03-18T23:21:47.121Z,13.10
2023-03-18T23:24:36.401Z,13.10
2023-03-18T23:27:28.831Z,13.10
2023-03-18T23:30:18.411Z,13.10
2023-03-18T23:33:08.842Z,13.10
2023-03-18T23:35:58.165Z,13.10
2023-03-18T23:38:47.607Z,13.10
2023-03-18T23:41:36.941Z,13.00
2023-03-18T23:44:28.273Z,13.10
2023-03-18T23:47:18.072Z,13.00
2023-03-18T23:50:09.344Z,13.00
2023-03-18T23:52:59.102Z,13.00
2023-03-18T23:55:49.806Z,13.00
2023-03-18T23:58:39.428Z,13.00
